Amberieu, France

08:01 CEST le 31 août 2016 (GMT +0200)
Rue Bouquet | | Change Station

Alt. 764 ft 45.96 °N, 5.28 °E | Updated 5 minutes ago

Clear
Ciel dégagé
65.5 ° F
Paraît 65.5 ° F
N
1.9
Vent Variable Vent de NNO
Gusts 3.7 mph

Aujourd'hui
Haut(e) -- | Bas -- ° F
--% Risque de précip.
Hier
Haut(e) -- | Bas -- ° F
Precip. -- pouce
Pression 30.12 pouce
Visibilité -9999.0 Miles terrestres
Nuages
Point de rosée 58 ° F
Humidité 76%
Précipitations 0.00 pouce
Profondeur de la couche neigeuse Non disponible.
6:58 AM 8:18 PM
Lune descendante, 1% visible
METAR LFLL 310530Z 13003KT CAVOK 19/15 Q1020 NOSIG
Pression 30.12 pouce
Visibilité -9999.0 Miles terrestres
Nuages
Point de rosée 58 ° F
Humidité 76%
Précipitations 0.00 pouce
Profondeur de la couche neigeuse Non disponible.
6:58 AM 8:18 PM
Lune descendante, 1% visible
METAR LFLL 310530Z 13003KT CAVOK 19/15 Q1020 NOSIG

10-Day Weather Forecast

×

Almanac

Astronomie

Aug. 31, 2016 Lever Coucher
Temps réel
Crépuscule civil
Crépuscule nautique
Crépuscule astronomique
Lune
Durée de lumière visible
Longueur du jour
Tomorrow will be .
, % of the Moon is Illuminated

Extrêmes aujourd'hui

Country Highs Country Lows

Community

WunderPhotos

Upload Photos

1,936,040 Photos téléchargées !

WunderBlog® & News

Nearby

Qualité de l'air

  Qualité de l'air Indice de la qualité de l'air Polluant
Not available.

Épaisseur de neige

Station Depth Altitude

Activité sismique

Ville Distance Mag. Time & Date
Minimum magnitude displayed is 2.5.

Températures des eaux côtières

Lieu Température

Stations

Stations météo à proximité

Emplacement de la station Température Refroidissement éolien Point de rosée Humidité Vent Precip. Alt. Mise à jour Type